Time;durP1;ratioP1;P1;durP2;ratioP2;P2;SDS_P1;SDS_P2;PMS_P1;PMS_P2;Temp;Humidity;BMP_temperature;BMP_pressure;BME280_temperature;BME280_humidity;BME280_pressure;Samples;Min_cycle;Max_cycle;Signal;HPM_P1;HPM_P2
2023/05/15 00:00:18;;;;;;;30.55;19.40;;;;;;;;;;5021350;28;20193;-66
2023/05/15 00:02:43;;;;;;;29.50;19.77;;;;;;;;;;5009019;28;20048;-66
2023/05/15 00:05:09;;;;;;;28.40;18.98;;;;;;;;;;5039087;28;20038;-67
2023/05/15 00:07:34;;;;;;;27.05;17.80;;;;;;;;;;5010000;28;20065;-67
2023/05/15 00:10:00;;;;;;;27.65;19.48;;;;;;;;;;5038776;28;20046;-68
2023/05/15 00:12:25;;;;;;;28.88;19.00;;;;;;;;;;5042803;28;20850;-68
2023/05/15 00:14:50;;;;;;;29.02;18.65;;;;;;;;;;5009352;28;20037;-66
2023/05/15 00:17:16;;;;;;;31.95;19.60;;;;;;;;;;5010424;28;20046;-66
2023/05/15 00:19:41;;;;;;;26.63;18.33;;;;;;;;;;5044832;28;20099;-70
2023/05/15 00:22:07;;;;;;;27.25;19.50;;;;;;;;;;5016441;28;20117;-71
2023/05/15 00:24:32;;;;;;;27.27;19.52;;;;;;;;;;5013444;28;20064;-72
2023/05/15 00:26:58;;;;;;;26.67;19.23;;;;;;;;;;5011162;28;20041;-71
2023/05/15 00:29:23;;;;;;;27.77;18.70;;;;;;;;;;5021012;28;20041;-70
2023/05/15 00:31:49;;;;;;;26.00;18.27;;;;;;;;;;5011995;28;20501;-71
2023/05/15 00:34:14;;;;;;;22.70;18.20;;;;;;;;;;5014606;28;20033;-72
2023/05/15 00:36:41;;;;;;;28.70;19.13;;;;;;;;;;5043837;28;21058;-71
2023/05/15 00:39:07;;;;;;;31.05;19.95;;;;;;;;;;5043467;28;20072;-71
2023/05/15 00:41:32;;;;;;;27.15;19.67;;;;;;;;;;5010570;28;20033;-71
2023/05/15 00:43:59;;;;;;;30.85;19.08;;;;;;;;;;5042240;28;20037;-71
2023/05/15 00:46:26;;;;;;;29.23;20.58;;;;;;;;;;5015311;28;20040;-70
2023/05/15 00:48:51;;;;;;;23.63;18.27;;;;;;;;;;5031182;28;20450;-70
2023/05/15 00:51:16;;;;;;;24.92;18.17;;;;;;;;;;5010630;28;20048;-71
2023/05/15 00:53:43;;;;;;;20.45;16.65;;;;;;;;;;5011699;28;20034;-70
2023/05/15 00:56:09;;;;;;;23.17;16.70;;;;;;;;;;5027354;28;20163;-71
2023/05/15 00:58:35;;;;;;;21.58;16.25;;;;;;;;;;5011696;28;20052;-70
2023/05/15 01:01:01;;;;;;;23.42;17.20;;;;;;;;;;5013842;28;20033;-70
2023/05/15 01:03:27;;;;;;;29.85;17.40;;;;;;;;;;5014572;28;20512;-70
2023/05/15 01:05:52;;;;;;;20.58;15.98;;;;;;;;;;5020743;28;20029;-70
2023/05/15 01:08:20;;;;;;;21.58;14.95;;;;;;;;;;5011057;28;20065;-70
2023/05/15 01:10:46;;;;;;;21.20;15.40;;;;;;;;;;5010451;28;20165;-70
2023/05/15 01:13:14;;;;;;;21.45;15.90;;;;;;;;;;4991142;28;20065;-70
2023/05/15 01:15:40;;;;;;;21.55;16.20;;;;;;;;;;4991206;28;20041;-71
2023/05/15 01:18:06;;;;;;;25.80;16.45;;;;;;;;;;4992137;28;20034;-70
2023/05/15 01:20:33;;;;;;;25.05;16.38;;;;;;;;;;5029975;28;20068;-71
2023/05/15 01:23:04;;;;;;;22.05;16.27;;;;;;;;;;5011220;28;20037;-69
2023/05/15 01:25:52;;;;;;;25.70;16.25;;;;;;;;;;4993976;28;20036;-70
2023/05/15 01:28:19;;;;;;;24.17;15.98;;;;;;;;;;5000714;28;20041;-71
2023/05/15 01:30:46;;;;;;;21.38;15.80;;;;;;;;;;5039604;28;20053;-71
2023/05/15 01:33:23;;;;;;;20.65;14.80;;;;;;;;;;5016530;28;20057;-71
2023/05/15 01:35:57;;;;;;;18.13;15.73;;;;;;;;;;4992109;28;20041;-70
2023/05/15 01:38:26;;;;;;;26.33;16.45;;;;;;;;;;4988976;28;20058;-70
2023/05/15 01:40:58;;;;;;;22.73;15.75;;;;;;;;;;4993717;28;20046;-70
2023/05/15 01:43:23;;;;;;;;;;;;;;;;;;5022966;28;20789;-71
2023/05/15 01:45:49;;;;;;;22.10;16.28;;;;;;;;;;4992818;28;19921;-71
2023/05/15 01:48:16;;;;;;;28.48;18.52;;;;;;;;;;5008332;28;20811;-72
2023/05/15 01:50:42;;;;;;;26.55;19.92;;;;;;;;;;4992127;28;22061;-72
2023/05/15 01:53:08;;;;;;;26.35;21.77;;;;;;;;;;4991687;28;20034;-71
2023/05/15 01:55:33;;;;;;;28.70;22.60;;;;;;;;;;4994372;28;20038;-70
2023/05/15 01:58:00;;;;;;;23.05;19.77;;;;;;;;;;5011436;28;20036;-71
2023/05/15 02:00:25;;;;;;;24.33;18.73;;;;;;;;;;5012929;28;20037;-72
2023/05/15 02:02:51;;;;;;;27.52;19.67;;;;;;;;;;5047502;28;20898;-70
2023/05/15 02:05:20;;;;;;;30.30;21.08;;;;;;;;;;5014436;28;21136;-71
2023/05/15 02:07:45;;;;;;;23.40;17.52;;;;;;;;;;5026356;28;20116;-70
2023/05/15 02:10:11;;;;;;;33.15;20.25;;;;;;;;;;5010949;28;20052;-70
2023/05/15 02:12:38;;;;;;;27.52;19.10;;;;;;;;;;5012005;28;20053;-70
2023/05/15 02:15:04;;;;;;;24.55;19.08;;;;;;;;;;5009489;28;20045;-70
2023/05/15 02:17:29;;;;;;;27.83;18.17;;;;;;;;;;5011703;28;20037;-71
2023/05/15 02:19:55;;;;;;;24.42;18.33;;;;;;;;;;5009991;28;20036;-72
2023/05/15 02:22:20;;;;;;;38.05;19.30;;;;;;;;;;5008730;28;20064;-70
2023/05/15 02:24:48;;;;;;;24.35;19.02;;;;;;;;;;5042654;28;20029;-71
2023/05/15 02:27:21;;;;;;;30.70;22.10;;;;;;;;;;5041555;28;20057;-70
2023/05/15 02:29:52;;;;;;;24.42;20.35;;;;;;;;;;5031388;28;20049;-70
2023/05/15 02:32:26;;;;;;;28.60;24.50;;;;;;;;;;5038493;28;20036;-70
2023/05/15 02:34:52;;;;;;;29.73;24.33;;;;;;;;;;5040013;28;20089;-70
2023/05/15 02:37:19;;;;;;;30.63;19.38;;;;;;;;;;5039786;28;20049;-70
2023/05/15 02:39:45;;;;;;;30.55;23.55;;;;;;;;;;5008079;28;20671;-71
2023/05/15 02:42:12;;;;;;;35.05;23.83;;;;;;;;;;5012256;28;20044;-70
2023/05/15 02:44:39;;;;;;;28.45;20.70;;;;;;;;;;4994491;28;20649;-69
2023/05/15 02:47:05;;;;;;;30.83;21.63;;;;;;;;;;4997379;28;20034;-68
2023/05/15 02:49:30;;;;;;;25.40;19.55;;;;;;;;;;4989532;28;20604;-70
2023/05/15 02:51:55;;;;;;;30.67;21.05;;;;;;;;;;4989453;28;20121;-71
2023/05/15 02:54:20;;;;;;;25.02;19.20;;;;;;;;;;4991050;28;20044;-70
2023/05/15 02:56:46;;;;;;;24.40;20.13;;;;;;;;;;4991028;28;20096;-70
2023/05/15 02:59:12;;;;;;;25.77;18.02;;;;;;;;;;4991868;28;20625;-70
2023/05/15 03:01:37;;;;;;;28.23;18.38;;;;;;;;;;4988205;28;20037;-71
2023/05/15 03:04:02;;;;;;;26.92;18.67;;;;;;;;;;4989502;28;20132;-70
2023/05/15 03:06:28;;;;;;;26.13;19.00;;;;;;;;;;4991246;28;20034;-71
2023/05/15 03:08:55;;;;;;;23.27;17.35;;;;;;;;;;4989670;28;20912;-71
2023/05/15 03:11:23;;;;;;;24.33;17.42;;;;;;;;;;4992265;28;20048;-73
2023/05/15 03:13:48;;;;;;;19.42;16.40;;;;;;;;;;5020210;28;20041;-71
2023/05/15 03:16:14;;;;;;;21.88;17.08;;;;;;;;;;5022187;28;20516;-73
2023/05/15 03:18:40;;;;;;;24.00;18.58;;;;;;;;;;4991527;28;20680;-71
2023/05/15 03:21:05;;;;;;;24.08;19.67;;;;;;;;;;5020031;28;20058;-71
2023/05/15 03:23:30;;;;;;;28.55;20.83;;;;;;;;;;4992960;28;20187;-70
2023/05/15 03:25:56;;;;;;;27.13;19.23;;;;;;;;;;4990826;28;20061;-71
2023/05/15 03:28:21;;;;;;;29.27;20.80;;;;;;;;;;4991595;28;20037;-71
2023/05/15 03:30:46;;;;;;;22.25;18.48;;;;;;;;;;4989618;28;20045;-71
2023/05/15 03:33:14;;;;;;;24.98;19.30;;;;;;;;;;4993032;28;20965;-72
2023/05/15 03:35:39;;;;;;;22.60;17.63;;;;;;;;;;5019938;28;20159;-71
2023/05/15 03:38:04;;;;;;;22.90;18.80;;;;;;;;;;4989899;28;20131;-73
2023/05/15 03:40:30;;;;;;;31.08;21.42;;;;;;;;;;4991261;28;20033;-74
2023/05/15 03:42:55;;;;;;;27.33;21.75;;;;;;;;;;4986701;28;20041;-73
2023/05/15 03:45:20;;;;;;;26.67;21.70;;;;;;;;;;4994783;28;20033;-73
2023/05/15 03:47:47;;;;;;;24.95;19.38;;;;;;;;;;4991686;28;20041;-72
2023/05/15 03:50:12;;;;;;;24.05;18.52;;;;;;;;;;4989271;28;20055;-72
2023/05/15 03:52:37;;;;;;;25.90;19.85;;;;;;;;;;4991152;28;20033;-73
2023/05/15 03:55:05;;;;;;;21.65;17.42;;;;;;;;;;4988170;28;20051;-73
2023/05/15 03:57:34;;;;;;;21.23;16.17;;;;;;;;;;4993539;28;20041;-73
2023/05/15 04:00:02;;;;;;;22.98;17.05;;;;;;;;;;4990815;28;20045;-73
2023/05/15 04:02:28;;;;;;;24.27;17.30;;;;;;;;;;5003555;28;20041;-72
2023/05/15 04:04:55;;;;;;;20.40;16.80;;;;;;;;;;5006433;28;20030;-73
2023/05/15 04:07:20;;;;;;;23.65;16.80;;;;;;;;;;5006410;28;20034;-73
2023/05/15 04:09:49;;;;;;;21.05;17.90;;;;;;;;;;5007246;28;20036;-73
2023/05/15 04:12:14;;;;;;;24.55;18.48;;;;;;;;;;5010189;28;20044;-72
2023/05/15 04:14:42;;;;;;;25.40;19.27;;;;;;;;;;5038661;28;20034;-74
2023/05/15 04:17:07;;;;;;;26.25;18.60;;;;;;;;;;5042316;28;20026;-71
2023/05/15 04:19:32;;;;;;;21.17;17.92;;;;;;;;;;5011646;28;20041;-72
2023/05/15 04:21:59;;;;;;;24.58;18.30;;;;;;;;;;5010652;28;20401;-71
2023/05/15 04:24:27;;;;;;;22.50;18.10;;;;;;;;;;5018247;28;20037;-72
2023/05/15 04:26:52;;;;;;;23.00;18.85;;;;;;;;;;5006355;28;20489;-73
2023/05/15 04:29:18;;;;;;;23.92;19.25;;;;;;;;;;5008015;28;20048;-72
2023/05/15 04:31:43;;;;;;;26.30;18.67;;;;;;;;;;5038749;28;20490;-73
2023/05/15 04:34:08;;;;;;;25.90;19.05;;;;;;;;;;5037647;28;20159;-72
2023/05/15 04:36:33;;;;;;;27.35;20.52;;;;;;;;;;5004993;28;20034;-71
2023/05/15 04:38:59;;;;;;;30.05;21.58;;;;;;;;;;5007013;28;20095;-72
2023/05/15 04:41:25;;;;;;;32.70;22.75;;;;;;;;;;5009388;28;20145;-72
2023/05/15 04:43:50;;;;;;;33.25;24.67;;;;;;;;;;5040582;28;20406;-72
2023/05/15 04:46:16;;;;;;;38.72;29.42;;;;;;;;;;5039006;28;20048;-72
2023/05/15 04:48:41;;;;;;;40.70;27.35;;;;;;;;;;5007250;28;20044;-73
2023/05/15 04:51:06;;;;;;;39.47;28.25;;;;;;;;;;5008291;28;20076;-72
2023/05/15 04:53:31;;;;;;;33.95;26.85;;;;;;;;;;5040307;28;20073;-72
2023/05/15 04:55:57;;;;;;;40.47;28.60;;;;;;;;;;5009466;28;20874;-73
2023/05/15 04:58:25;;;;;;;40.03;28.10;;;;;;;;;;5040194;28;20501;-72
2023/05/15 05:00:52;;;;;;;40.30;29.10;;;;;;;;;;5005250;28;20041;-71
2023/05/15 05:03:20;;;;;;;41.63;28.73;;;;;;;;;;5011466;28;20041;-73
2023/05/15 05:05:45;;;;;;;45.78;28.75;;;;;;;;;;5012149;28;20044;-70
2023/05/15 05:08:10;;;;;;;42.78;28.65;;;;;;;;;;5010458;28;20037;-74
2023/05/15 05:10:36;;;;;;;39.25;26.85;;;;;;;;;;5009684;28;20049;-72
2023/05/15 05:13:01;;;;;;;36.20;26.25;;;;;;;;;;5041593;28;20046;-73
2023/05/15 05:15:26;;;;;;;37.20;26.20;;;;;;;;;;5012662;28;20053;-75
2023/05/15 05:17:52;;;;;;;41.53;26.27;;;;;;;;;;5012716;28;20125;-70
2023/05/15 05:20:17;;;;;;;38.20;25.90;;;;;;;;;;5042866;28;20167;-71
2023/05/15 05:22:44;;;;;;;42.55;26.25;;;;;;;;;;5031616;28;20055;-70
2023/05/15 05:25:10;;;;;;;42.92;26.70;;;;;;;;;;5015696;28;20399;-72
2023/05/15 05:27:35;;;;;;;46.80;26.63;;;;;;;;;;5011021;28;20042;-71
2023/05/15 05:30:01;;;;;;;40.42;26.55;;;;;;;;;;5012188;28;20083;-71
2023/05/15 05:32:26;;;;;;;42.75;26.52;;;;;;;;;;5009260;28;20086;-70
2023/05/15 05:34:53;;;;;;;39.25;26.10;;;;;;;;;;5007664;28;20034;-72
2023/05/15 05:37:21;;;;;;;41.30;25.23;;;;;;;;;;5040739;28;20047;-71
2023/05/15 05:39:46;;;;;;;45.30;26.73;;;;;;;;;;5009085;28;20641;-71
2023/05/15 05:42:12;;;;;;;45.13;27.55;;;;;;;;;;5009677;28;20044;-71
2023/05/15 05:44:39;;;;;;;44.45;26.42;;;;;;;;;;5009101;28;20037;-70
2023/05/15 05:47:05;;;;;;;40.67;26.85;;;;;;;;;;5009693;28;20071;-71
2023/05/15 05:49:30;;;;;;;45.25;27.52;;;;;;;;;;5008575;28;20057;-70
2023/05/15 05:52:03;;;;;;;45.28;27.77;;;;;;;;;;5017948;28;20127;-71
2023/05/15 05:54:29;;;;;;;45.28;27.85;;;;;;;;;;5006173;28;20037;-71
2023/05/15 05:56:55;;;;;;;49.83;28.08;;;;;;;;;;5039543;28;20048;-71
2023/05/15 05:59:23;;;;;;;45.85;27.77;;;;;;;;;;5009808;28;20867;-71
2023/05/15 06:01:49;;;;;;;47.35;28.40;;;;;;;;;;5009059;28;20034;-71
2023/05/15 06:04:15;;;;;;;40.17;27.67;;;;;;;;;;5010537;28;20033;-71
2023/05/15 06:06:45;;;;;;;67.30;29.17;;;;;;;;;;5040816;28;20040;-72
2023/05/15 06:09:10;;;;;;;73.53;28.63;;;;;;;;;;5009219;28;20069;-70
2023/05/15 06:11:36;;;;;;;48.40;28.90;;;;;;;;;;5011040;28;20355;-71
2023/05/15 06:14:01;;;;;;;44.85;29.00;;;;;;;;;;5012464;28;20098;-72
2023/05/15 06:16:26;;;;;;;68.65;29.52;;;;;;;;;;5028669;28;20583;-70
2023/05/15 06:18:54;;;;;;;45.40;27.75;;;;;;;;;;5009371;28;20033;-71
2023/05/15 06:21:21;;;;;;;58.70;29.95;;;;;;;;;;5015802;28;20026;-72
2023/05/15 06:23:46;;;;;;;47.55;28.27;;;;;;;;;;5038243;28;20059;-71
2023/05/15 06:26:11;;;;;;;45.15;27.70;;;;;;;;;;5010273;28;20030;-72
2023/05/15 06:28:36;;;;;;;43.33;28.40;;;;;;;;;;5006257;28;20060;-71
2023/05/15 06:31:02;;;;;;;47.10;29.88;;;;;;;;;;5024876;28;20383;-71
2023/05/15 06:33:27;;;;;;;47.10;27.67;;;;;;;;;;5007416;28;20045;-72
2023/05/15 06:35:53;;;;;;;40.28;28.33;;;;;;;;;;5042188;28;20040;-71
2023/05/15 06:38:18;;;;;;;235.88;37.65;;;;;;;;;;5040816;28;20056;-71
2023/05/15 06:40:43;;;;;;;89.78;29.42;;;;;;;;;;5008038;28;20057;-71
2023/05/15 06:43:09;;;;;;;215.88;35.72;;;;;;;;;;5043548;28;20037;-71
2023/05/15 06:45:36;;;;;;;72.97;27.95;;;;;;;;;;5009627;28;20044;-71
2023/05/15 06:48:04;;;;;;;41.42;25.75;;;;;;;;;;5006867;28;20041;-71
2023/05/15 06:50:32;;;;;;;76.90;27.17;;;;;;;;;;5008377;28;20064;-71
2023/05/15 06:53:00;;;;;;;74.07;28.73;;;;;;;;;;5008386;28;20510;-71
2023/05/15 06:55:27;;;;;;;48.70;25.60;;;;;;;;;;5008492;28;20067;-71
2023/05/15 06:57:52;;;;;;;37.92;24.30;;;;;;;;;;5010137;28;20026;-70
2023/05/15 07:00:18;;;;;;;55.70;25.60;;;;;;;;;;5009633;28;20044;-71
2023/05/15 07:02:43;;;;;;;98.82;27.13;;;;;;;;;;5013607;28;20040;-70
2023/05/15 07:05:10;;;;;;;43.88;22.42;;;;;;;;;;5038913;28;20708;-71
2023/05/15 07:07:37;;;;;;;35.75;22.15;;;;;;;;;;5007405;28;20044;-71
2023/05/15 07:10:03;;;;;;;33.97;22.73;;;;;;;;;;5039701;28;20037;-71
2023/05/15 07:12:28;;;;;;;28.85;22.38;;;;;;;;;;5041113;28;20507;-70
2023/05/15 07:14:54;;;;;;;32.10;22.83;;;;;;;;;;5010799;28;20214;-71
2023/05/15 07:17:19;;;;;;;32.20;22.98;;;;;;;;;;5040090;28;20044;-70
2023/05/15 07:19:47;;;;;;;35.35;23.52;;;;;;;;;;5008720;28;20120;-71
2023/05/15 07:22:15;;;;;;;33.15;24.27;;;;;;;;;;5042704;28;20040;-71
2023/05/15 07:24:40;;;;;;;30.83;22.08;;;;;;;;;;5040622;28;20029;-70
2023/05/15 07:27:05;;;;;;;35.33;22.27;;;;;;;;;;5008237;28;20037;-71
2023/05/15 07:29:33;;;;;;;33.70;22.85;;;;;;;;;;5010326;28;20049;-71
2023/05/15 07:32:03;;;;;;;32.05;22.30;;;;;;;;;;5008703;28;20033;-71
2023/05/15 07:34:28;;;;;;;28.20;21.10;;;;;;;;;;5042526;28;20033;-71
2023/05/15 07:36:53;;;;;;;28.95;19.52;;;;;;;;;;5006219;28;20084;-71
2023/05/15 07:39:21;;;;;;;29.35;20.63;;;;;;;;;;5007147;28;20064;-71
2023/05/15 07:41:46;;;;;;;22.00;17.50;;;;;;;;;;5006827;28;20033;-71
2023/05/15 07:44:12;;;;;;;24.50;17.75;;;;;;;;;;5008458;28;20075;-71
2023/05/15 07:46:37;;;;;;;23.40;17.65;;;;;;;;;;5010267;28;20053;-71
2023/05/15 07:49:03;;;;;;;29.08;16.92;;;;;;;;;;5008498;28;20041;-71
2023/05/15 07:51:30;;;;;;;29.00;18.55;;;;;;;;;;5012071;28;20035;-72
2023/05/15 07:53:56;;;;;;;25.40;18.38;;;;;;;;;;5010375;28;20051;-71
2023/05/15 07:56:22;;;;;;;24.90;16.85;;;;;;;;;;5008362;28;20037;-71
2023/05/15 07:58:47;;;;;;;25.13;16.30;;;;;;;;;;5010304;28;20026;-71
2023/05/15 08:01:12;;;;;;;22.23;15.43;;;;;;;;;;5006382;28;20036;-71
2023/05/15 08:03:38;;;;;;;28.30;16.83;;;;;;;;;;5008980;28;20048;-72
2023/05/15 08:06:03;;;;;;;19.48;14.73;;;;;;;;;;5039443;28;20034;-70
2023/05/15 08:08:28;;;;;;;22.15;15.05;;;;;;;;;;4995029;28;20057;-71
2023/05/15 08:10:54;;;;;;;18.63;14.23;;;;;;;;;;5006635;28;20100;-70
2023/05/15 08:13:19;;;;;;;21.55;15.27;;;;;;;;;;5040709;28;20120;-71
2023/05/15 08:15:44;;;;;;;19.50;14.32;;;;;;;;;;5038307;28;20037;-70
2023/05/15 08:18:12;;;;;;;24.77;17.17;;;;;;;;;;5006387;28;20033;-70
2023/05/15 08:20:37;;;;;;;19.77;15.48;;;;;;;;;;5005132;28;20030;-72
2023/05/15 08:23:02;;;;;;;27.40;18.90;;;;;;;;;;5007357;28;20041;-72
2023/05/15 08:25:28;;;;;;;23.55;17.52;;;;;;;;;;5021748;28;20029;-71
2023/05/15 08:27:53;;;;;;;30.85;18.20;;;;;;;;;;5006039;28;20044;-70
2023/05/15 08:30:18;;;;;;;24.40;17.13;;;;;;;;;;5006648;28;20651;-71
2023/05/15 08:32:47;;;;;;;28.00;17.52;;;;;;;;;;5006343;28;20030;-71
2023/05/15 08:35:13;;;;;;;25.13;18.80;;;;;;;;;;5008755;28;20042;-72
2023/05/15 08:37:38;;;;;;;28.65;18.70;;;;;;;;;;5012820;28;20053;-72
2023/05/15 08:40:06;;;;;;;27.35;19.55;;;;;;;;;;5042700;28;20899;-71
2023/05/15 08:42:32;;;;;;;26.17;19.33;;;;;;;;;;5009536;28;20041;-71
2023/05/15 08:44:58;;;;;;;29.13;19.70;;;;;;;;;;5011795;28;20153;-71
2023/05/15 08:47:25;;;;;;;26.48;19.63;;;;;;;;;;5023580;28;20044;-71
2023/05/15 08:49:56;;;;;;;34.75;21.27;;;;;;;;;;5008711;28;20168;-71
2023/05/15 08:52:22;;;;;;;24.97;20.03;;;;;;;;;;5027432;28;20033;-70
2023/05/15 08:54:47;;;;;;;23.83;20.15;;;;;;;;;;4999364;28;21044;-71
2023/05/15 08:57:13;;;;;;;38.10;21.20;;;;;;;;;;5014488;28;20037;-71
2023/05/15 08:59:39;;;;;;;45.10;21.73;;;;;;;;;;5012390;28;20045;-70
2023/05/15 09:02:05;;;;;;;28.05;19.75;;;;;;;;;;5040696;28;20751;-71
2023/05/15 09:04:30;;;;;;;28.25;19.70;;;;;;;;;;5011065;28;20026;-71
2023/05/15 09:06:57;;;;;;;23.85;18.08;;;;;;;;;;4996564;28;20044;-70
2023/05/15 09:09:23;;;;;;;23.88;18.67;;;;;;;;;;4996802;28;20140;-73
2023/05/15 09:11:49;;;;;;;24.92;20.02;;;;;;;;;;4990268;28;20042;-71
2023/05/15 09:14:15;;;;;;;25.25;19.15;;;;;;;;;;4992875;28;20033;-71
2023/05/15 09:16:40;;;;;;;23.00;18.25;;;;;;;;;;4990254;28;20044;-70
2023/05/15 09:19:05;;;;;;;27.05;20.75;;;;;;;;;;4989775;28;20033;-72
2023/05/15 09:21:31;;;;;;;27.13;19.55;;;;;;;;;;4989620;28;20030;-70
2023/05/15 09:24:18;;;;;;;23.38;18.27;;;;;;;;;;4993300;28;20042;-71
2023/05/15 09:26:44;;;;;;;24.73;18.83;;;;;;;;;;4991583;28;21079;-71
2023/05/15 09:29:10;;;;;;;24.88;19.67;;;;;;;;;;4991568;28;20103;-71
2023/05/15 09:31:36;;;;;;;24.33;17.95;;;;;;;;;;5041173;28;20429;-72
2023/05/15 09:34:03;;;;;;;27.73;16.77;;;;;;;;;;5008678;28;20040;-70
2023/05/15 09:36:29;;;;;;;23.90;18.00;;;;;;;;;;5009270;28;20852;-71
2023/05/15 09:38:58;;;;;;;22.42;16.77;;;;;;;;;;5011017;28;20128;-71
2023/05/15 09:41:25;;;;;;;22.40;15.80;;;;;;;;;;5008875;28;20041;-69
2023/05/15 09:43:55;;;;;;;19.73;15.00;;;;;;;;;;5038139;28;20036;-70
2023/05/15 09:46:21;;;;;;;20.75;15.10;;;;;;;;;;5005206;28;20103;-70
2023/05/15 09:48:46;;;;;;;25.10;15.50;;;;;;;;;;5035965;28;20749;-69
2023/05/15 09:51:15;;;;;;;22.02;16.10;;;;;;;;;;5010281;28;20077;-69
2023/05/15 09:53:41;;;;;;;24.23;14.75;;;;;;;;;;5007636;28;20072;-71
2023/05/15 09:56:07;;;;;;;20.60;14.43;;;;;;;;;;5041484;28;20164;-69
2023/05/15 09:58:33;;;;;;;16.73;12.85;;;;;;;;;;5041059;28;20490;-70
2023/05/15 10:01:00;;;;;;;21.65;13.38;;;;;;;;;;5040422;28;20133;-70
2023/05/15 10:03:25;;;;;;;22.80;12.00;;;;;;;;;;5009318;28;20048;-71
2023/05/15 10:05:58;;;;;;;37.47;13.60;;;;;;;;;;5007078;28;20037;-70
2023/05/15 10:08:29;;;;;;;26.05;11.32;;;;;;;;;;5009416;28;20083;-71
2023/05/15 10:10:58;;;;;;;15.73;10.45;;;;;;;;;;5035772;28;20128;-70
2023/05/15 10:13:23;;;;;;;14.48;9.85;;;;;;;;;;5007758;28;20509;-70
2023/05/15 10:15:54;;;;;;;19.15;9.32;;;;;;;;;;5010755;28;20037;-72
2023/05/15 10:18:23;;;;;;;17.75;7.97;;;;;;;;;;5045704;28;20046;-70
2023/05/15 10:20:49;;;;;;;13.30;8.45;;;;;;;;;;5006253;28;20041;-70
2023/05/15 10:23:16;;;;;;;17.10;8.43;;;;;;;;;;5039392;28;20128;-69
2023/05/15 10:25:49;;;;;;;17.20;8.25;;;;;;;;;;5000373;28;20045;-72
2023/05/15 10:28:16;;;;;;;14.52;8.70;;;;;;;;;;4991098;28;20029;-71
2023/05/15 10:30:41;;;;;;;18.85;9.18;;;;;;;;;;5009330;28;20046;-72
2023/05/15 10:33:06;;;;;;;17.75;9.77;;;;;;;;;;4987951;28;20079;-70
2023/05/15 10:35:33;;;;;;;18.52;11.60;;;;;;;;;;4989508;28;21086;-69
2023/05/15 10:37:59;;;;;;;21.60;12.27;;;;;;;;;;4987873;28;20127;-72
2023/05/15 10:40:25;;;;;;;19.25;12.10;;;;;;;;;;4985171;28;20530;-72
2023/05/15 10:42:54;;;;;;;19.83;12.20;;;;;;;;;;5016712;28;20061;-74
2023/05/15 10:45:19;;;;;;;21.02;12.30;;;;;;;;;;4988565;28;20479;-71
2023/05/15 10:47:45;;;;;;;25.10;13.18;;;;;;;;;;4994154;28;20034;-71
2023/05/15 10:50:11;;;;;;;26.40;14.65;;;;;;;;;;4987834;28;20510;-70
2023/05/15 10:52:37;;;;;;;25.40;15.68;;;;;;;;;;4987007;28;20041;-70
2023/05/15 10:55:06;;;;;;;26.65;17.55;;;;;;;;;;4987845;28;22478;-70
2023/05/15 10:57:31;;;;;;;30.75;18.70;;;;;;;;;;4989478;28;20128;-72
2023/05/15 11:00:00;;;;;;;27.63;17.38;;;;;;;;;;4989271;28;20041;-70
2023/05/15 11:02:28;;;;;;;31.63;18.20;;;;;;;;;;4984187;28;20228;-71
2023/05/15 11:04:55;;;;;;;27.38;15.70;;;;;;;;;;4986572;28;20057;-73
2023/05/15 11:07:20;;;;;;;25.15;14.10;;;;;;;;;;5018919;28;20038;-75
2023/05/15 11:09:46;;;;;;;25.35;12.77;;;;;;;;;;4987157;28;20606;-71
2023/05/15 11:12:11;;;;;;;26.17;13.00;;;;;;;;;;4993404;28;20143;-73
2023/05/15 11:14:36;;;;;;;20.23;12.43;;;;;;;;;;5003451;28;20049;-75
2023/05/15 11:17:03;;;;;;;20.45;11.07;;;;;;;;;;4980572;28;20037;-76
2023/05/15 11:19:30;;;;;;;15.88;9.65;;;;;;;;;;5009259;28;20052;-77
2023/05/15 11:21:58;;;;;;;20.25;9.05;;;;;;;;;;4985536;28;20402;-68
2023/05/15 11:24:28;;;;;;;16.27;7.18;;;;;;;;;;5016930;28;20506;-73
2023/05/15 11:27:05;;;;;;;20.85;6.13;;;;;;;;;;4986180;28;20041;-72
2023/05/15 11:29:34;;;;;;;13.32;5.18;;;;;;;;;;4974314;28;20064;-73
2023/05/15 11:32:01;;;;;;;39.15;6.47;;;;;;;;;;4990984;28;20042;-74
2023/05/15 11:34:31;;;;;;;9.75;4.15;;;;;;;;;;4983351;28;21455;-78
2023/05/15 11:36:58;;;;;;;9.43;4.47;;;;;;;;;;5001721;28;20582;-74
2023/05/15 11:39:26;;;;;;;7.70;4.53;;;;;;;;;;4997114;28;20041;-74
2023/05/15 11:41:52;;;;;;;14.05;5.55;;;;;;;;;;4990367;28;20541;-74
2023/05/15 11:44:20;;;;;;;10.50;4.53;;;;;;;;;;4987084;28;20277;-76
2023/05/15 11:46:46;;;;;;;21.95;4.80;;;;;;;;;;4996862;28;20515;-73
2023/05/15 11:49:11;;;;;;;15.70;4.93;;;;;;;;;;4985512;28;20037;-75
2023/05/15 11:51:41;;;;;;;14.25;4.22;;;;;;;;;;5016566;28;20107;-74
2023/05/15 11:54:09;;;;;;;13.48;4.90;;;;;;;;;;4988536;28;20172;-73
2023/05/15 11:56:42;;;;;;;14.18;4.35;;;;;;;;;;4991850;28;20123;-75
2023/05/15 11:59:08;;;;;;;16.50;4.65;;;;;;;;;;4987526;28;20129;-69
2023/05/15 12:01:38;;;;;;;13.13;3.70;;;;;;;;;;5006341;28;20052;-72
2023/05/15 12:04:10;;;;;;;24.33;5.47;;;;;;;;;;4982563;28;20030;-74
2023/05/15 12:06:35;;;;;;;14.48;3.65;;;;;;;;;;5002146;28;20042;-73
2023/05/15 12:09:00;;;;;;;11.02;3.35;;;;;;;;;;4988417;28;20193;-74
2023/05/15 12:11:28;;;;;;;18.25;4.28;;;;;;;;;;4991245;28;20049;-76
2023/05/15 12:13:54;;;;;;;12.82;4.38;;;;;;;;;;5014967;28;20065;-74
2023/05/15 12:16:25;;;;;;;17.33;4.10;;;;;;;;;;4994850;28;20638;-73
2023/05/15 12:18:50;;;;;;;20.02;4.18;;;;;;;;;;4992646;28;22309;-75
2023/05/15 12:21:15;;;;;;;13.95;4.00;;;;;;;;;;4993276;28;20044;-74
2023/05/15 12:23:48;;;;;;;22.33;4.35;;;;;;;;;;4997004;28;20083;-76
2023/05/15 12:26:13;;;;;;;18.23;4.10;;;;;;;;;;4996513;28;20050;-77
2023/05/15 12:28:39;;;;;;;19.00;3.70;;;;;;;;;;4996189;28;20096;-76
2023/05/15 12:31:04;;;;;;;28.95;4.35;;;;;;;;;;4999552;28;20061;-74
2023/05/15 12:33:30;;;;;;;15.32;3.58;;;;;;;;;;5022693;28;20648;-71
2023/05/15 12:35:55;;;;;;;20.08;3.42;;;;;;;;;;4990408;28;20034;-75
2023/05/15 12:38:23;;;;;;;22.60;3.67;;;;;;;;;;4990816;28;20065;-74
2023/05/15 12:40:53;;;;;;;10.55;3.40;;;;;;;;;;4996218;28;20444;-76
2023/05/15 12:43:18;;;;;;;14.48;3.90;;;;;;;;;;4995008;28;20145;-77
2023/05/15 12:45:44;;;;;;;13.70;3.67;;;;;;;;;;5008141;28;20072;-77
2023/05/15 12:48:15;;;;;;;11.23;3.10;;;;;;;;;;4991166;28;20129;-77
2023/05/15 12:50:42;;;;;;;8.88;2.80;;;;;;;;;;4993789;28;20124;-74
2023/05/15 12:53:08;;;;;;;14.25;3.42;;;;;;;;;;4992727;28;20092;-73
2023/05/15 12:55:34;;;;;;;17.02;3.50;;;;;;;;;;5023914;28;20054;-77
2023/05/15 12:58:03;;;;;;;20.77;3.92;;;;;;;;;;4988754;28;20703;-75
2023/05/15 13:00:29;;;;;;;11.23;3.42;;;;;;;;;;5007515;28;20052;-73
2023/05/15 13:02:55;;;;;;;15.70;3.63;;;;;;;;;;5043960;28;22383;-77
2023/05/15 13:05:27;;;;;;;13.48;3.17;;;;;;;;;;5011960;28;20044;-75
2023/05/15 13:07:52;;;;;;;8.68;3.10;;;;;;;;;;5010888;28;20200;-74
2023/05/15 13:10:22;;;;;;;16.08;3.20;;;;;;;;;;5012495;28;20044;-77
2023/05/15 13:12:47;;;;;;;15.32;2.92;;;;;;;;;;4999798;28;20076;-77
2023/05/15 13:15:24;;;;;;;11.73;3.28;;;;;;;;;;5011685;28;20203;-80
2023/05/15 13:18:08;;;;;;;9.82;2.50;;;;;;;;;;5043368;28;20048;-76
2023/05/15 13:20:38;;;;;;;9.43;2.58;;;;;;;;;;5015104;28;20041;-75
2023/05/15 13:23:03;;;;;;;8.43;2.58;;;;;;;;;;5008207;28;20569;-74
2023/05/15 13:25:28;;;;;;;10.57;3.20;;;;;;;;;;5041279;28;20119;-71
2023/05/15 13:27:58;;;;;;;16.92;3.63;;;;;;;;;;5009505;28;20445;-74
2023/05/15 13:30:23;;;;;;;10.77;3.38;;;;;;;;;;5011778;28;20441;-76
2023/05/15 13:32:50;;;;;;;12.82;4.15;;;;;;;;;;5013803;28;20041;-75
2023/05/15 13:35:15;;;;;;;18.30;3.85;;;;;;;;;;5030188;28;20117;-74
2023/05/15 13:37:41;;;;;;;11.13;3.70;;;;;;;;;;5005009;28;20059;-78
2023/05/15 13:40:10;;;;;;;10.15;3.40;;;;;;;;;;5008870;28;20362;-77
2023/05/15 13:42:36;;;;;;;13.25;3.50;;;;;;;;;;5005417;28;20147;-72
2023/05/15 13:45:02;;;;;;;10.07;4.47;;;;;;;;;;5008184;28;20295;-81
2023/05/15 13:47:27;;;;;;;17.98;5.00;;;;;;;;;;5009885;28;20033;-75
2023/05/15 13:49:52;;;;;;;14.75;4.82;;;;;;;;;;5008938;28;20129;-74
2023/05/15 13:52:20;;;;;;;18.83;5.00;;;;;;;;;;5010516;28;20052;-72
2023/05/15 13:54:45;;;;;;;15.57;4.45;;;;;;;;;;5010237;28;20045;-74
2023/05/15 13:57:11;;;;;;;16.48;4.22;;;;;;;;;;5008230;28;20033;-72
2023/05/15 13:59:36;;;;;;;14.35;4.55;;;;;;;;;;5008329;28;21898;-78
2023/05/15 14:02:01;;;;;;;18.10;4.78;;;;;;;;;;5040748;28;20040;-74
2023/05/15 14:04:26;;;;;;;22.23;4.93;;;;;;;;;;5009227;28;20040;-76
2023/05/15 14:06:55;;;;;;;22.20;4.65;;;;;;;;;;5016946;28;20645;-67
2023/05/15 14:09:20;;;;;;;15.43;4.35;;;;;;;;;;5021546;28;20030;-73
2023/05/15 14:11:45;;;;;;;21.02;5.72;;;;;;;;;;5011769;28;20068;-73
2023/05/15 14:14:11;;;;;;;18.63;4.32;;;;;;;;;;5012824;28;20060;-74
2023/05/15 14:16:36;;;;;;;16.88;4.47;;;;;;;;;;5043669;28;20065;-76